Time;durP1;ratioP1;P1;durP2;ratioP2;P2;SDS_P1;SDS_P2;PMS_P1;PMS_P2;Temp;Humidity;BMP_temperature;BMP_pressure;BME280_temperature;BME280_humidity;BME280_pressure;Samples;Min_cycle;Max_cycle;Signal;HPM_P1;HPM_P2
2020/12/28 00:02:19;;;;;;;8.15;4.20;;;;;;;;;;5113473;28;20068;-16
2020/12/28 00:04:44;;;;;;;5.30;3.55;;;;;;;;;;5112370;28;20020;-16
2020/12/28 00:07:10;;;;;;;9.45;4.55;;;;;;;;;;5113315;28;20043;-17
2020/12/28 00:09:35;;;;;;;7.53;4.30;;;;;;;;;;5113344;28;20026;-18
2020/12/28 00:12:01;;;;;;;8.60;3.60;;;;;;;;;;5111976;28;20035;-17
2020/12/28 00:14:27;;;;;;;6.28;3.95;;;;;;;;;;5111870;28;20023;-17
2020/12/28 00:16:53;;;;;;;5.35;3.55;;;;;;;;;;5112216;28;20133;-15
2020/12/28 00:19:19;;;;;;;7.63;4.10;;;;;;;;;;5094968;28;20096;-17
2020/12/28 00:21:44;;;;;;;7.85;3.95;;;;;;;;;;5111281;28;20037;-17
2020/12/28 00:24:10;;;;;;;8.40;3.97;;;;;;;;;;5113372;28;20058;-16
2020/12/28 00:26:36;;;;;;;6.93;3.00;;;;;;;;;;5113083;28;20598;-17
2020/12/28 00:29:02;;;;;;;6.78;3.70;;;;;;;;;;5113251;28;20069;-16
2020/12/28 00:31:27;;;;;;;4.28;3.13;;;;;;;;;;5111698;28;20028;-16
2020/12/28 00:33:53;;;;;;;4.82;2.80;;;;;;;;;;5113023;28;20056;-16
2020/12/28 00:36:18;;;;;;;4.88;3.00;;;;;;;;;;5113038;28;20074;-16
2020/12/28 00:38:43;;;;;;;5.75;2.97;;;;;;;;;;5112851;28;20037;-17
2020/12/28 00:41:10;;;;;;;6.20;3.35;;;;;;;;;;5113167;28;20042;-17
2020/12/28 00:43:35;;;;;;;6.60;3.13;;;;;;;;;;5112772;28;20411;-17
2020/12/28 00:46:01;;;;;;;4.80;3.28;;;;;;;;;;5113065;28;20066;-16
2020/12/28 00:48:26;;;;;;;6.32;3.47;;;;;;;;;;5112794;28;20473;-16
2020/12/28 00:50:51;;;;;;;6.60;3.28;;;;;;;;;;5112992;28;20031;-17
2020/12/28 00:53:17;;;;;;;4.72;3.88;;;;;;;;;;5111297;28;20154;-16
2020/12/28 00:55:43;;;;;;;4.63;3.20;;;;;;;;;;5094377;28;20563;-16
2020/12/28 00:58:08;;;;;;;6.22;3.35;;;;;;;;;;5111385;28;20111;-17
2020/12/28 01:00:34;;;;;;;7.75;4.55;;;;;;;;;;5111367;28;20425;-17
2020/12/28 01:03:03;;;;;;;8.63;4.90;;;;;;;;;;5111409;28;20172;-16
2020/12/28 01:06:07;;;;;;;8.32;3.75;;;;;;;;;;5112462;28;20079;-17
2020/12/28 01:08:34;;;;;;;10.93;5.13;;;;;;;;;;5111216;28;20028;-17
2020/12/28 01:11:00;;;;;;;7.15;4.30;;;;;;;;;;5111202;28;20023;-17
2020/12/28 01:13:26;;;;;;;5.65;3.85;;;;;;;;;;5111233;28;20123;-18
2020/12/28 01:15:55;;;;;;;6.65;3.70;;;;;;;;;;5111046;28;20501;-18
2020/12/28 01:18:24;;;;;;;6.60;4.00;;;;;;;;;;5111125;28;20026;-17
2020/12/28 01:20:55;;;;;;;8.98;4.15;;;;;;;;;;5111168;28;20127;-17
2020/12/28 01:23:20;;;;;;;6.10;3.92;;;;;;;;;;5112456;28;20478;-16
2020/12/28 01:26:08;;;;;;;6.93;3.05;;;;;;;;;;5111073;28;20420;-17
2020/12/28 01:28:37;;;;;;;6.43;3.42;;;;;;;;;;5111085;28;20037;-18
2020/12/28 01:31:03;;;;;;;6.07;3.22;;;;;;;;;;5111097;28;20043;-15
2020/12/28 01:34:04;;;;;;;5.45;3.47;;;;;;;;;;5097922;28;20118;-16
2020/12/28 01:36:37;;;;;;;5.15;3.08;;;;;;;;;;5114925;28;20036;-17
2020/12/28 01:39:09;;;;;;;7.75;3.20;;;;;;;;;;5114974;28;20031;-16
2020/12/28 01:41:35;;;;;;;4.65;2.90;;;;;;;;;;5114752;28;20030;-17
2020/12/28 01:44:01;;;;;;;7.30;3.72;;;;;;;;;;5114945;28;20462;-16
2020/12/28 01:46:27;;;;;;;4.78;2.85;;;;;;;;;;5116172;28;20533;-16
2020/12/28 01:48:54;;;;;;;6.45;3.58;;;;;;;;;;5115051;28;20107;-16
2020/12/28 01:51:21;;;;;;;5.10;3.00;;;;;;;;;;5114655;28;20027;-17
2020/12/28 01:53:47;;;;;;;5.78;3.25;;;;;;;;;;5114485;28;20044;-17
2020/12/28 01:56:34;;;;;;;5.05;3.33;;;;;;;;;;5107369;28;20498;-17
2020/12/28 01:58:59;;;;;;;8.50;3.78;;;;;;;;;;5097658;28;20055;-17
2020/12/28 02:01:34;;;;;;;5.28;2.67;;;;;;;;;;5114394;28;20023;-17
2020/12/28 02:03:59;;;;;;;7.82;3.40;;;;;;;;;;5115852;28;20529;-15
2020/12/28 02:06:31;;;;;;;6.27;3.57;;;;;;;;;;5114437;28;20062;-17
2020/12/28 02:08:58;;;;;;;5.63;3.90;;;;;;;;;;5114315;28;20102;-15
2020/12/28 02:11:24;;;;;;;7.85;3.30;;;;;;;;;;5114240;28;20122;-18
2020/12/28 02:13:49;;;;;;;7.90;3.97;;;;;;;;;;5115596;28;20126;-17
2020/12/28 02:16:49;;;;;;;5.28;3.10;;;;;;;;;;5052442;28;20153;-17
2020/12/28 02:19:19;;;;;;;8.25;4.32;;;;;;;;;;5099385;28;20134;-18
2020/12/28 02:21:48;;;;;;;5.30;3.28;;;;;;;;;;5114125;28;20071;-17
2020/12/28 02:24:19;;;;;;;4.15;2.78;;;;;;;;;;5114023;28;20027;-16
2020/12/28 02:26:47;;;;;;;5.45;3.50;;;;;;;;;;5114079;28;20397;-16
2020/12/28 02:29:12;;;;;;;6.10;3.78;;;;;;;;;;5115307;28;20099;-17
2020/12/28 02:31:39;;;;;;;3.60;2.58;;;;;;;;;;5113882;28;20080;-17
2020/12/28 02:34:10;;;;;;;5.68;3.25;;;;;;;;;;5114004;28;20093;-16
2020/12/28 02:36:44;;;;;;;9.60;3.10;;;;;;;;;;5113638;28;20539;-17
2020/12/28 02:39:10;;;;;;;4.63;2.97;;;;;;;;;;5096843;28;20058;-16
2020/12/28 02:41:36;;;;;;;5.80;3.33;;;;;;;;;;5113663;28;20027;-17
2020/12/28 02:44:20;;;;;;;6.47;3.60;;;;;;;;;;5114760;28;20046;-17
2020/12/28 02:47:08;;;;;;;6.00;3.35;;;;;;;;;;5051873;28;20036;-17
2020/12/28 02:49:52;;;;;;;5.25;3.17;;;;;;;;;;5115219;28;20120;-16
2020/12/28 02:52:36;;;;;;;5.30;3.10;;;;;;;;;;5114597;28;20058;-17
2020/12/28 02:55:20;;;;;;;5.78;3.20;;;;;;;;;;5114728;28;20082;-16
2020/12/28 02:58:04;;;;;;;4.57;2.67;;;;;;;;;;5114713;28;20088;-17
2020/12/28 03:00:48;;;;;;;6.22;3.10;;;;;;;;;;5115032;28;20034;-17
2020/12/28 03:03:32;;;;;;;4.80;3.20;;;;;;;;;;5113853;28;20042;-17
2020/12/28 03:06:32;;;;;;;5.07;3.00;;;;;;;;;;5051439;28;20506;-16
2020/12/28 03:09:21;;;;;;;5.07;3.25;;;;;;;;;;5082035;28;20043;-16
2020/12/28 03:12:06;;;;;;;6.15;3.78;;;;;;;;;;5114484;28;20394;-17
2020/12/28 03:14:50;;;;;;;6.25;2.85;;;;;;;;;;5113288;28;20126;-17
2020/12/28 03:17:47;;;;;;;5.55;3.30;;;;;;;;;;5079931;28;20046;-17
2020/12/28 03:20:31;;;;;;;5.10;3.05;;;;;;;;;;5114515;28;20088;-16
2020/12/28 03:23:15;;;;;;;5.35;3.40;;;;;;;;;;5114531;28;20078;-16
2020/12/28 03:25:59;;;;;;;5.25;3.13;;;;;;;;;;5114244;28;20390;-17
2020/12/28 03:28:43;;;;;;;7.82;3.63;;;;;;;;;;5114164;28;20035;-17
2020/12/28 03:31:27;;;;;;;6.95;3.38;;;;;;;;;;5114369;28;20038;-17
2020/12/28 03:34:11;;;;;;;6.05;3.60;;;;;;;;;;5114180;28;20239;-17
2020/12/28 03:36:55;;;;;;;4.78;3.00;;;;;;;;;;5114009;28;20455;-16
2020/12/28 03:39:39;;;;;;;6.07;3.22;;;;;;;;;;5112905;28;20039;-16
2020/12/28 03:42:23;;;;;;;5.65;2.95;;;;;;;;;;5113770;28;20041;-17
2020/12/28 03:45:07;;;;;;;5.57;2.60;;;;;;;;;;5114187;28;20074;-17
2020/12/28 03:47:51;;;;;;;6.30;3.50;;;;;;;;;;5114060;28;20078;-17
2020/12/28 03:50:35;;;;;;;5.88;3.50;;;;;;;;;;5113944;28;20128;-17
2020/12/28 03:53:19;;;;;;;5.68;3.33;;;;;;;;;;5113559;28;20094;-17
2020/12/28 03:56:03;;;;;;;7.68;4.07;;;;;;;;;;5112873;28;20051;-17
2020/12/28 03:58:47;;;;;;;7.10;3.75;;;;;;;;;;5113732;28;20469;-16
2020/12/28 04:01:32;;;;;;;6.53;4.10;;;;;;;;;;5112416;28;20489;-17
2020/12/28 04:04:16;;;;;;;6.53;3.50;;;;;;;;;;5113479;28;20504;-17
2020/12/28 04:07:17;;;;;;;14.70;9.57;;;;;;;;;;5070518;28;20046;-17
2020/12/28 04:10:01;;;;;;;10.15;6.15;;;;;;;;;;5110102;28;20085;-16
2020/12/28 04:12:50;;;;;;;10.30;6.55;;;;;;;;;;5104853;28;20032;-16
2020/12/28 04:15:15;;;;;;;9.30;5.35;;;;;;;;;;5113454;28;20042;-17
2020/12/28 04:17:41;;;;;;;6.78;4.38;;;;;;;;;;5111844;28;20450;-16
2020/12/28 04:20:06;;;;;;;8.38;4.22;;;;;;;;;;5113479;28;20059;-16
2020/12/28 04:22:31;;;;;;;4.88;3.83;;;;;;;;;;5113086;28;20039;-17
2020/12/28 04:24:57;;;;;;;6.05;3.17;;;;;;;;;;5113252;28;20020;-16
2020/12/28 04:27:22;;;;;;;5.78;4.05;;;;;;;;;;5113198;28;20024;-16
2020/12/28 04:29:48;;;;;;;13.80;4.32;;;;;;;;;;5112949;28;20020;-17
2020/12/28 04:32:14;;;;;;;7.55;4.07;;;;;;;;;;5112946;28;20102;-17
2020/12/28 04:34:40;;;;;;;6.37;4.00;;;;;;;;;;5112873;28;20123;-18
2020/12/28 04:37:05;;;;;;;5.22;3.28;;;;;;;;;;5111731;28;20034;-18
2020/12/28 04:39:31;;;;;;;4.10;3.30;;;;;;;;;;5112733;28;20063;-16
2020/12/28 04:41:56;;;;;;;6.97;4.15;;;;;;;;;;5112865;28;20054;-18
2020/12/28 04:44:21;;;;;;;6.22;3.47;;;;;;;;;;5111811;28;20016;-17
2020/12/28 04:46:47;;;;;;;7.18;4.65;;;;;;;;;;5112783;28;20127;-16
2020/12/28 04:49:12;;;;;;;7.40;4.07;;;;;;;;;;5111486;28;20179;-17
2020/12/28 04:51:38;;;;;;;7.70;5.05;;;;;;;;;;5112794;28;20015;-16
2020/12/28 04:54:03;;;;;;;6.00;4.05;;;;;;;;;;5112668;28;20024;-16
2020/12/28 04:56:28;;;;;;;4.05;3.20;;;;;;;;;;5111304;28;20044;-17
2020/12/28 04:58:54;;;;;;;4.88;3.72;;;;;;;;;;5112603;28;20031;-16
2020/12/28 05:01:19;;;;;;;5.43;3.25;;;;;;;;;;5111458;28;20023;-17
2020/12/28 05:03:45;;;;;;;6.90;4.22;;;;;;;;;;5112581;28;20050;-17
2020/12/28 05:06:10;;;;;;;5.90;4.22;;;;;;;;;;5111621;28;20458;-17
2020/12/28 05:08:41;;;;;;;6.32;4.15;;;;;;;;;;5115466;28;20027;-16
2020/12/28 05:11:12;;;;;;;6.63;3.78;;;;;;;;;;5116848;28;20039;-17
2020/12/28 05:13:37;;;;;;;8.48;4.38;;;;;;;;;;5115351;28;20080;-16
2020/12/28 05:16:03;;;;;;;7.10;4.15;;;;;;;;;;5116823;28;20044;-16
2020/12/28 05:18:28;;;;;;;6.88;4.38;;;;;;;;;;5116964;28;20090;-17
2020/12/28 05:20:54;;;;;;;6.78;4.13;;;;;;;;;;5115332;28;20508;-17
2020/12/28 05:23:19;;;;;;;5.65;3.72;;;;;;;;;;5116853;28;20472;-17
2020/12/28 05:25:45;;;;;;;6.43;3.88;;;;;;;;;;5116501;28;20024;-16
2020/12/28 05:28:14;;;;;;;7.05;4.18;;;;;;;;;;5116717;28;20105;-18
2020/12/28 05:30:41;;;;;;;6.70;4.93;;;;;;;;;;5116650;28;20530;-19
2020/12/28 05:33:09;;;;;;;6.25;3.30;;;;;;;;;;5116410;28;20012;-20
2020/12/28 05:35:34;;;;;;;6.57;4.60;;;;;;;;;;5114738;28;20138;-19
2020/12/28 05:38:00;;;;;;;7.10;4.45;;;;;;;;;;5115048;28;20109;-19
2020/12/28 05:40:26;;;;;;;5.00;3.00;;;;;;;;;;5116511;28;20039;-16
2020/12/28 05:42:52;;;;;;;6.68;4.45;;;;;;;;;;5116421;28;20016;-17
2020/12/28 05:45:18;;;;;;;5.20;3.83;;;;;;;;;;5116172;28;20497;-16
2020/12/28 05:47:49;;;;;;;11.82;4.57;;;;;;;;;;5116068;28;20024;-16
2020/12/28 05:50:17;;;;;;;7.00;4.35;;;;;;;;;;5115983;28;20023;-17
2020/12/28 05:52:46;;;;;;;8.15;4.95;;;;;;;;;;5115804;28;20051;-17
2020/12/28 05:55:16;;;;;;;7.75;4.57;;;;;;;;;;5097558;28;20059;-16
2020/12/28 05:57:41;;;;;;;6.57;4.50;;;;;;;;;;5115822;28;20534;-16
2020/12/28 06:00:07;;;;;;;7.53;3.70;;;;;;;;;;5115886;28;20107;-17
2020/12/28 06:02:38;;;;;;;6.57;4.03;;;;;;;;;;5115708;28;20521;-16
2020/12/28 06:05:04;;;;;;;6.80;3.65;;;;;;;;;;5115705;28;20428;-17
2020/12/28 06:07:30;;;;;;;5.43;4.13;;;;;;;;;;5115744;28;20110;-16
2020/12/28 06:09:56;;;;;;;5.53;3.50;;;;;;;;;;5115629;28;20042;-16
2020/12/28 06:12:21;;;;;;;6.22;3.92;;;;;;;;;;5115709;28;20028;-16
2020/12/28 06:14:47;;;;;;;6.18;4.05;;;;;;;;;;5115371;28;20031;-17
2020/12/28 06:17:13;;;;;;;5.00;4.05;;;;;;;;;;5115488;28;20027;-17
2020/12/28 06:19:39;;;;;;;6.07;3.30;;;;;;;;;;5114483;28;20034;-17
2020/12/28 06:22:24;;;;;;;4.78;3.50;;;;;;;;;;5115449;28;20061;-18
2020/12/28 06:24:59;;;;;;;4.53;3.28;;;;;;;;;;5113553;28;20031;-17
2020/12/28 06:27:26;;;;;;;7.53;3.55;;;;;;;;;;5115447;28;20028;-16
2020/12/28 06:29:51;;;;;;;3.15;2.78;;;;;;;;;;5115229;28;20027;-16
2020/12/28 06:32:16;;;;;;;7.15;3.10;;;;;;;;;;5115153;28;20030;-17
2020/12/28 06:34:46;;;;;;;8.95;3.63;;;;;;;;;;5114021;28;20020;-17
2020/12/28 06:37:12;;;;;;;4.28;2.75;;;;;;;;;;5115447;28;20066;-17
2020/12/28 06:39:37;;;;;;;4.53;2.85;;;;;;;;;;5114993;28;20454;-16
2020/12/28 06:42:10;;;;;;;5.35;3.50;;;;;;;;;;5114157;28;20106;-16
2020/12/28 06:44:36;;;;;;;4.90;2.85;;;;;;;;;;5114963;27;20032;-16
2020/12/28 06:47:14;;;;;;;7.88;3.42;;;;;;;;;;5115145;28;20054;-16
2020/12/28 06:49:40;;;;;;;7.57;4.47;;;;;;;;;;5115169;28;20024;-17
2020/12/28 06:52:06;;;;;;;6.68;4.55;;;;;;;;;;5113590;28;20513;-17
2020/12/28 06:54:31;;;;;;;6.03;3.33;;;;;;;;;;5114656;28;20027;-17
2020/12/28 06:57:01;;;;;;;5.22;3.30;;;;;;;;;;5114704;28;20032;-16
2020/12/28 06:59:26;;;;;;;5.93;4.25;;;;;;;;;;5115066;27;20545;-17
2020/12/28 07:01:52;;;;;;;4.10;3.20;;;;;;;;;;5114579;28;20100;-17
2020/12/28 07:04:17;;;;;;;5.30;3.17;;;;;;;;;;5113417;28;20111;-17
2020/12/28 07:06:43;;;;;;;6.18;3.60;;;;;;;;;;5113151;28;20466;-16
2020/12/28 07:09:09;;;;;;;4.30;3.17;;;;;;;;;;5114497;28;20030;-16
2020/12/28 07:11:34;;;;;;;4.47;3.55;;;;;;;;;;5113142;28;20058;-17
2020/12/28 07:14:06;;;;;;;4.93;2.83;;;;;;;;;;5114654;28;20381;-16
2020/12/28 07:16:32;;;;;;;3.92;2.30;;;;;;;;;;5114300;28;20039;-16
2020/12/28 07:19:01;;;;;;;3.97;2.45;;;;;;;;;;5113260;28;20056;-16
2020/12/28 07:21:27;;;;;;;4.85;2.47;;;;;;;;;;5113052;28;20417;-16
2020/12/28 07:23:52;;;;;;;3.03;2.20;;;;;;;;;;5114105;28;20019;-16
2020/12/28 07:26:18;;;;;;;5.30;2.53;;;;;;;;;;5114138;28;20034;-16
2020/12/28 07:28:45;;;;;;;2.70;2.00;;;;;;;;;;5112748;28;20099;-16
2020/12/28 07:31:11;;;;;;;3.65;2.25;;;;;;;;;;4742961;28;10000151;-15
2020/12/28 07:33:47;;;;;;;3.25;2.92;;;;;;;;;;5090094;28;20058;-21
2020/12/28 07:36:16;;;;;;;4.32;3.00;;;;;;;;;;5103277;28;20047;-19
2020/12/28 07:38:42;;;;;;;3.83;3.42;;;;;;;;;;5110025;28;20374;-19
2020/12/28 07:41:19;;;;;;;5.78;3.78;;;;;;;;;;5108123;28;20031;-18
2020/12/28 07:43:57;;;;;;;2.63;2.42;;;;;;;;;;5091159;28;20139;-25
2020/12/28 07:46:32;;;;;;;3.15;2.28;;;;;;;;;;5109088;28;20059;-18
2020/12/28 07:49:06;;;;;;;4.47;3.33;;;;;;;;;;5109207;28;20054;-18
2020/12/28 07:51:38;;;;;;;5.07;3.03;;;;;;;;;;5066277;28;20356;-16
2020/12/28 07:54:11;;;;;;;5.63;2.72;;;;;;;;;;5066506;28;20033;-16
2020/12/28 07:56:46;;;;;;;4.15;2.60;;;;;;;;;;5066677;28;20391;-16
2020/12/28 07:59:26;;;;;;;6.30;2.33;;;;;;;;;;5066267;28;20067;-16
2020/12/28 08:01:53;;;;;;;3.97;2.63;;;;;;;;;;5066054;28;20063;-17
2020/12/28 08:04:21;;;;;;;2.47;1.88;;;;;;;;;;5066238;28;20017;-17
2020/12/28 08:06:47;;;;;;;3.40;2.00;;;;;;;;;;5065567;28;20032;-16
2020/12/28 08:09:12;;;;;;;2.75;1.83;;;;;;;;;;5066345;28;20038;-16
2020/12/28 08:11:37;;;;;;;3.42;2.50;;;;;;;;;;5065951;28;20060;-16
2020/12/28 08:14:09;;;;;;;3.35;2.13;;;;;;;;;;5065954;28;20071;-16
2020/12/28 08:16:35;;;;;;;3.20;1.83;;;;;;;;;;5066033;28;20143;-16
2020/12/28 08:19:00;;;;;;;5.85;2.47;;;;;;;;;;5065783;28;20531;-16
2020/12/28 08:21:37;;;;;;;2.05;1.80;;;;;;;;;;5066082;28;20035;-16
2020/12/28 08:24:02;;;;;;;1.98;1.55;;;;;;;;;;5065865;28;20368;-16
2020/12/28 08:26:29;;;;;;;2.63;1.73;;;;;;;;;;5065900;28;20027;-16
2020/12/28 08:28:55;;;;;;;2.40;1.60;;;;;;;;;;5065938;28;20112;-17
2020/12/28 08:31:27;;;;;;;2.72;2.13;;;;;;;;;;5065423;28;20372;-17
2020/12/28 08:34:00;;;;;;;4.77;2.60;;;;;;;;;;5064860;28;20055;-16
2020/12/28 08:36:26;;;;;;;3.28;1.50;;;;;;;;;;5065351;28;20082;-17
2020/12/28 08:38:51;;;;;;;3.08;2.58;;;;;;;;;;5065454;28;20060;-17
2020/12/28 08:41:16;;;;;;;1.98;1.70;;;;;;;;;;5065315;28;20144;-16
2020/12/28 08:43:45;;;;;;;1.70;1.42;;;;;;;;;;5064438;28;20108;-16
2020/12/28 08:46:11;;;;;;;2.03;1.45;;;;;;;;;;5065199;28;20029;-17
2020/12/28 08:48:36;;;;;;;2.97;2.10;;;;;;;;;;5063430;28;20415;-17
2020/12/28 08:51:12;;;;;;;2.65;2.13;;;;;;;;;;5064237;28;20055;-16
2020/12/28 08:53:37;;;;;;;2.17;1.58;;;;;;;;;;5046395;28;20021;-16
2020/12/28 08:56:03;;;;;;;2.90;2.60;;;;;;;;;;5063355;28;20395;-17
2020/12/28 08:58:28;;;;;;;2.95;2.00;;;;;;;;;;5064696;28;20071;-16
2020/12/28 09:00:54;;;;;;;2.35;1.52;;;;;;;;;;5066102;28;20028;-16
2020/12/28 09:03:19;;;;;;;4.50;1.98;;;;;;;;;;5054900;28;20170;-15
2020/12/28 09:05:45;;;;;;;2.45;1.73;;;;;;;;;;5054983;28;20017;-16
2020/12/28 09:08:10;;;;;;;5.30;1.88;;;;;;;;;;5055042;28;20033;-19
2020/12/28 09:10:36;;;;;;;2.42;1.55;;;;;;;;;;5054848;28;20029;-17
2020/12/28 09:13:02;;;;;;;1.67;1.30;;;;;;;;;;5054913;28;20021;-17
2020/12/28 09:15:27;;;;;;;2.22;1.23;;;;;;;;;;5055190;28;20194;-16
2020/12/28 09:17:53;;;;;;;3.63;2.65;;;;;;;;;;5054763;28;20103;-15
2020/12/28 09:20:18;;;;;;;1.77;1.27;;;;;;;;;;5054878;28;20028;-16
2020/12/28 09:22:44;;;;;;;1.27;1.10;;;;;;;;;;5054896;28;20107;-15
2020/12/28 09:25:10;;;;;;;3.10;1.50;;;;;;;;;;5055026;28;20038;-15
2020/12/28 09:27:35;;;;;;;9.90;2.70;;;;;;;;;;5054919;28;20025;-16
2020/12/28 09:30:06;;;;;;;5.72;2.17;;;;;;;;;;5053305;28;20132;-16
2020/12/28 09:32:32;;;;;;;2.78;1.45;;;;;;;;;;5053288;28;20029;-16
2020/12/28 09:34:57;;;;;;;2.72;1.65;;;;;;;;;;5054501;28;20024;-15
2020/12/28 09:37:23;;;;;;;4.80;2.92;;;;;;;;;;5042664;28;20037;-17
2020/12/28 09:39:49;;;;;;;3.88;3.33;;;;;;;;;;5051096;28;20025;-18
2020/12/28 09:42:18;;;;;;;4.10;3.13;;;;;;;;;;5051061;28;20017;-20
2020/12/28 09:44:46;;;;;;;3.22;2.70;;;;;;;;;;5049816;28;20028;-19
2020/12/28 09:47:15;;;;;;;5.78;2.83;;;;;;;;;;5033697;28;20486;-19
2020/12/28 09:49:40;;;;;;;1.95;1.85;;;;;;;;;;5049432;28;20051;-19
2020/12/28 09:52:06;;;;;;;2.50;1.55;;;;;;;;;;5049659;28;20127;-17
2020/12/28 09:54:34;;;;;;;2.20;1.58;;;;;;;;;;5050790;28;20028;-19
2020/12/28 09:57:05;;;;;;;3.20;1.70;;;;;;;;;;5050595;28;20041;-18
2020/12/28 09:59:31;;;;;;;2.50;1.25;;;;;;;;;;5050699;28;20094;-17
2020/12/28 10:01:56;;;;;;;2.83;2.13;;;;;;;;;;5050301;28;20081;-17
2020/12/28 10:04:22;;;;;;;4.65;1.67;;;;;;;;;;5050849;28;20029;-18
2020/12/28 10:06:47;;;;;;;2.28;1.63;;;;;;;;;;5049531;28;20032;-18
2020/12/28 10:09:13;;;;;;;3.25;1.98;;;;;;;;;;5050807;28;20040;-18
2020/12/28 10:11:39;;;;;;;3.10;1.98;;;;;;;;;;5050149;28;20044;-17
2020/12/28 10:14:05;;;;;;;2.42;2.00;;;;;;;;;;5047911;28;20032;-18
2020/12/28 10:16:31;;;;;;;2.13;1.60;;;;;;;;;;5050735;28;20167;-18
2020/12/28 10:18:57;;;;;;;3.60;1.90;;;;;;;;;;5050294;28;20032;-18
2020/12/28 10:21:23;;;;;;;3.40;1.50;;;;;;;;;;5050325;28;20056;-18
2020/12/28 10:23:49;;;;;;;3.92;2.35;;;;;;;;;;5049639;28;20033;-17
2020/12/28 10:26:16;;;;;;;3.85;2.13;;;;;;;;;;5050275;28;20031;-17
2020/12/28 10:28:41;;;;;;;3.22;2.35;;;;;;;;;;5049036;28;20041;-17
2020/12/28 10:31:10;;;;;;;5.00;2.13;;;;;;;;;;5050278;28;20040;-18
2020/12/28 10:33:37;;;;;;;4.03;2.63;;;;;;;;;;5048517;28;20035;-16
2020/12/28 10:36:02;;;;;;;2.45;1.77;;;;;;;;;;5049757;28;20020;-16
2020/12/28 10:38:28;;;;;;;3.35;1.98;;;;;;;;;;5043175;28;20364;-17
2020/12/28 10:40:53;;;;;;;4.28;2.15;;;;;;;;;;5049486;28;20049;-17
2020/12/28 10:43:19;;;;;;;2.28;1.50;;;;;;;;;;5050305;28;20029;-18
2020/12/28 10:45:44;;;;;;;2.50;2.10;;;;;;;;;;5050156;28;20510;-14
2020/12/28 10:48:10;;;;;;;3.45;1.63;;;;;;;;;;5049632;28;20103;-16
2020/12/28 10:50:35;;;;;;;15.07;1.58;;;;;;;;;;5049641;28;20060;-18
2020/12/28 10:53:01;;;;;;;1.95;1.00;;;;;;;;;;5049761;28;20029;-17
2020/12/28 10:55:26;;;;;;;2.75;2.08;;;;;;;;;;5050146;28;20048;-18
2020/12/28 10:57:52;;;;;;;1.70;1.27;;;;;;;;;;5049991;28;20435;-19
2020/12/28 11:00:17;;;;;;;3.00;1.80;;;;;;;;;;5047906;28;20071;-18
2020/12/28 11:02:43;;;;;;;3.33;1.55;;;;;;;;;;5049908;28;20033;-15
2020/12/28 11:05:09;;;;;;;3.17;1.67;;;;;;;;;;5048299;28;20387;-15
2020/12/28 11:07:34;;;;;;;4.03;1.67;;;;;;;;;;5049348;28;20033;-14
2020/12/28 11:10:00;;;;;;;1.67;1.08;;;;;;;;;;5049319;28;20029;-17
2020/12/28 11:12:25;;;;;;;1.52;1.20;;;;;;;;;;5049052;28;20028;-15
2020/12/28 11:14:50;;;;;;;1.80;1.30;;;;;;;;;;5049729;28;20025;-16
2020/12/28 11:17:16;;;;;;;5.32;2.10;;;;;;;;;;5046324;28;20036;-17
2020/12/28 11:19:41;;;;;;;2.60;1.05;;;;;;;;;;5049165;28;20419;-17
2020/12/28 11:22:07;;;;;;;9.80;4.50;;;;;;;;;;5047954;28;20040;-16
2020/12/28 11:24:33;;;;;;;1.80;1.33;;;;;;;;;;5048554;28;20115;-16
2020/12/28 11:26:59;;;;;;;1.52;0.98;;;;;;;;;;5047330;28;20039;-17
2020/12/28 11:29:25;;;;;;;1.98;1.10;;;;;;;;;;5047778;28;20021;-18
2020/12/28 11:31:50;;;;;;;17.80;7.85;;;;;;;;;;5047786;28;20442;-18
2020/12/28 11:34:15;;;;;;;3.70;2.35;;;;;;;;;;5047798;28;20032;-17
2020/12/28 11:36:42;;;;;;;3.22;1.75;;;;;;;;;;5048882;28;20029;-15
2020/12/28 11:39:10;;;;;;;2.30;1.00;;;;;;;;;;5049275;28;20032;-17
2020/12/28 11:41:35;;;;;;;1.10;0.98;;;;;;;;;;5049078;28;20033;-17
2020/12/28 11:44:01;;;;;;;3.95;2.40;;;;;;;;;;5048897;28;20021;-17
2020/12/28 11:46:26;;;;;;;2.67;0.88;;;;;;;;;;5047341;28;20076;-18
2020/12/28 11:48:51;;;;;;;1.48;0.93;;;;;;;;;;5047969;28;20021;-17
2020/12/28 11:51:17;;;;;;;1.55;1.05;;;;;;;;;;5048500;28;20110;-17
2020/12/28 11:53:43;;;;;;;8.25;4.93;;;;;;;;;;5048404;28;20104;-18
2020/12/28 11:56:14;;;;;;;2.05;1.30;;;;;;;;;;5047191;28;20036;-17
2020/12/28 11:58:43;;;;;;;1.58;0.63;;;;;;;;;;5029947;28;20120;-15
2020/12/28 12:01:12;;;;;;;10.48;7.95;;;;;;;;;;5028392;28;20476;-17
2020/12/28 12:03:38;;;;;;;4.47;1.10;;;;;;;;;;5028566;28;20033;-16
2020/12/28 12:06:04;;;;;;;2.65;1.05;;;;;;;;;;5027182;28;20087;-17
2020/12/28 12:08:29;;;;;;;0.95;0.70;;;;;;;;;;5028723;28;20048;-17
2020/12/28 12:10:55;;;;;;;2.08;0.70;;;;;;;;;;5028265;28;20069;-16
2020/12/28 12:13:21;;;;;;;5.53;4.53;;;;;;;;;;5028046;28;20033;-16
2020/12/28 12:15:47;;;;;;;2.72;1.23;;;;;;;;;;5028375;28;20086;-21
2020/12/28 12:18:12;;;;;;;2.92;1.25;;;;;;;;;;5028427;28;20068;-17
2020/12/28 12:20:38;;;;;;;6.90;2.20;;;;;;;;;;5031174;28;20017;-17
2020/12/28 12:23:04;;;;;;;1.40;0.60;;;;;;;;;;5048526;28;20021;-17
2020/12/28 12:25:30;;;;;;;0.77;0.70;;;;;;;;;;5048293;28;20067;-18
2020/12/28 12:27:55;;;;;;;2.30;1.40;;;;;;;;;;5048314;28;20079;-18
2020/12/28 12:30:21;;;;;;;0.77;0.50;;;;;;;;;;5048522;28;20055;-18
2020/12/28 12:32:46;;;;;;;1.73;0.80;;;;;;;;;;5048180;28;20383;-17
2020/12/28 12:35:12;;;;;;;1.48;1.17;;;;;;;;;;5030272;28;20024;-17
2020/12/28 12:37:37;;;;;;;1.50;0.63;;;;;;;;;;5048697;28;20112;-17
2020/12/28 12:40:03;;;;;;;1.10;0.60;;;;;;;;;;5052005;28;20013;-15
2020/12/28 12:42:28;;;;;;;2.90;0.60;;;;;;;;;;5051619;28;20039;-17
2020/12/28 12:44:54;;;;;;;2.30;0.52;;;;;;;;;;5051803;28;20283;-17
2020/12/28 12:47:19;;;;;;;0.90;0.40;;;;;;;;;;5051699;28;20025;-17
2020/12/28 12:49:45;;;;;;;0.75;0.45;;;;;;;;;;5051223;28;20102;-17
2020/12/28 12:52:11;;;;;;;1.00;0.43;;;;;;;;;;5051783;28;20526;-18
2020/12/28 12:54:37;;;;;;;1.98;0.57;;;;;;;;;;5051448;28;20028;-15
2020/12/28 12:57:03;;;;;;;1.55;0.85;;;;;;;;;;5051291;28;20037;-17
2020/12/28 12:59:28;;;;;;;0.50;0.32;;;;;;;;;;5051474;28;20028;-18
2020/12/28 13:01:53;;;;;;;1.73;0.35;;;;;;;;;;5051308;28;20655;-17
2020/12/28 13:04:31;;;;;;;1.15;0.35;;;;;;;;;;5051295;28;20027;-17
2020/12/28 13:06:57;;;;;;;0.35;0.25;;;;;;;;;;5051410;28;20537;-17
2020/12/28 13:09:23;;;;;;;1.13;0.38;;;;;;;;;;5051211;28;20060;-17
2020/12/28 13:11:48;;;;;;;18.15;1.50;;;;;;;;;;5049748;28;20063;-16
2020/12/28 13:14:14;;;;;;;1.40;0.50;;;;;;;;;;5051475;28;20460;-16
2020/12/28 13:16:39;;;;;;;1.48;0.80;;;;;;;;;;5051464;28;20040;-16
2020/12/28 13:19:05;;;;;;;2.25;1.75;;;;;;;;;;5051588;28;20090;-16
2020/12/28 13:21:31;;;;;;;4.65;2.90;;;;;;;;;;5051391;28;20916;-16
2020/12/28 13:23:56;;;;;;;1.83;0.90;;;;;;;;;;5050757;28;20029;-16
2020/12/28 13:26:22;;;;;;;1.27;0.47;;;;;;;;;;5051301;28;20130;-19
2020/12/28 13:28:47;;;;;;;0.98;0.50;;;;;;;;;;5050483;28;20021;-17
2020/12/28 13:31:12;;;;;;;1.15;0.40;;;;;;;;;;5050916;28;20036;-19
2020/12/28 13:33:38;;;;;;;2.63;0.60;;;;;;;;;;5035520;28;20025;-18
2020/12/28 13:36:03;;;;;;;2.10;0.50;;;;;;;;;;5036793;28;20029;-19
2020/12/28 13:38:29;;;;;;;7.15;0.88;;;;;;;;;;5049521;28;20017;-18
2020/12/28 13:40:57;;;;;;;2.15;0.50;;;;;;;;;;5048040;28;20404;-19
2020/12/28 13:43:27;;;;;;;1.23;0.77;;;;;;;;;;5030109;28;20021;-18
2020/12/28 13:45:53;;;;;;;2.42;0.60;;;;;;;;;;5030376;28;20271;-19
2020/12/28 13:48:19;;;;;;;0.93;0.55;;;;;;;;;;5030599;28;20020;-18
2020/12/28 13:50:45;;;;;;;1.13;0.60;;;;;;;;;;5030431;28;20049;-19
2020/12/28 13:53:11;;;;;;;3.05;0.43;;;;;;;;;;5031269;28;20061;-19
2020/12/28 13:55:38;;;;;;;2.42;0.90;;;;;;;;;;5030824;28;20472;-20
2020/12/28 13:58:03;;;;;;;7.93;0.57;;;;;;;;;;5031113;28;20170;-19
2020/12/28 14:00:29;;;;;;;0.73;0.30;;;;;;;;;;5029358;28;20037;-18
2020/12/28 14:02:54;;;;;;;1.58;0.50;;;;;;;;;;5030838;28;20023;-18
2020/12/28 14:05:20;;;;;;;5.53;0.82;;;;;;;;;;5031337;28;20156;-19
2020/12/28 14:07:45;;;;;;;3.63;1.05;;;;;;;;;;5062493;28;20021;-19
2020/12/28 14:10:11;;;;;;;0.22;0.20;;;;;;;;;;5029477;28;20049;-19
2020/12/28 14:12:36;;;;;;;2.22;0.60;;;;;;;;;;5030213;28;20028;-19
2020/12/28 14:15:01;;;;;;;1.75;1.00;;;;;;;;;;5028954;28;20112;-18
2020/12/28 14:17:27;;;;;;;2.15;0.52;;;;;;;;;;5030717;28;20508;-18
2020/12/28 14:19:52;;;;;;;0.20;0.20;;;;;;;;;;5028963;28;20064;-19
2020/12/28 14:22:18;;;;;;;13.20;0.55;;;;;;;;;;5029261;28;20112;-18
2020/12/28 14:24:43;;;;;;;1.35;0.65;;;;;;;;;;5028778;28;20025;-18
2020/12/28 14:27:09;;;;;;;4.68;0.50;;;;;;;;;;5030536;28;20052;-19
2020/12/28 14:29:34;;;;;;;5.35;0.35;;;;;;;;;;5030288;28;20035;-19
2020/12/28 14:31:59;;;;;;;1.40;0.60;;;;;;;;;;5028956;28;20528;-17
2020/12/28 14:34:25;;;;;;;2.00;1.10;;;;;;;;;;5030117;28;20034;-20
2020/12/28 14:36:52;;;;;;;2.17;0.95;;;;;;;;;;5029832;28;20027;-19
2020/12/28 14:39:18;;;;;;;4.28;0.43;;;;;;;;;;5030085;28;20021;-18
2020/12/28 14:41:43;;;;;;;3.40;0.70;;;;;;;;;;5028779;28;20523;-18
2020/12/28 14:44:09;;;;;;;5.45;0.95;;;;;;;;;;5029798;28;20124;-18
2020/12/28 14:46:35;;;;;;;7.85;0.85;;;;;;;;;;5030299;28;20100;-19
2020/12/28 14:49:00;;;;;;;0.85;0.68;;;;;;;;;;5029725;28;20037;-20
2020/12/28 14:51:26;;;;;;;2.10;0.20;;;;;;;;;;5029846;28;20081;-18
2020/12/28 14:53:52;;;;;;;3.60;0.77;;;;;;;;;;5029733;28;20549;-18